createdAt,value
2022-11-02T00:00:33.495Z,11.94
2022-11-02T00:03:01.356Z,11.95
2022-11-02T00:05:30.982Z,11.99
2022-11-02T00:07:58.814Z,12.04
2022-11-02T00:10:26.630Z,12.02
2022-11-02T00:12:54.467Z,11.99
2022-11-02T00:15:24.395Z,12.05
2022-11-02T00:17:55.895Z,12.15
2022-11-02T00:20:23.752Z,12.24
2022-11-02T00:22:55.142Z,12.33
2022-11-02T00:25:25.661Z,12.46
2022-11-02T00:27:53.390Z,12.55
2022-11-02T00:30:21.460Z,12.61
2022-11-02T00:32:50.034Z,12.70
2022-11-02T00:35:18.063Z,12.74
2022-11-02T00:37:45.839Z,12.77
2022-11-02T00:40:14.321Z,12.80
2022-11-02T00:42:42.122Z,12.81
2022-11-02T00:45:10.335Z,12.85
2022-11-02T00:47:38.451Z,12.88
2022-11-02T00:50:06.733Z,12.88
2022-11-02T00:52:40.421Z,12.84
2022-11-02T00:55:10.988Z,12.79
2022-11-02T00:57:42.257Z,12.74
2022-11-02T01:00:12.174Z,12.76
2022-11-02T01:02:40.458Z,12.85
2022-11-02T01:05:09.776Z,12.81
2022-11-02T01:07:37.682Z,12.79
2022-11-02T01:10:10.764Z,12.74
2022-11-02T01:12:39.620Z,12.70
2022-11-02T01:15:08.417Z,12.66
2022-11-02T01:17:37.020Z,12.64
2022-11-02T01:20:06.847Z,12.63
2022-11-02T01:22:34.651Z,12.63
2022-11-02T01:25:02.633Z,12.66
2022-11-02T01:27:30.500Z,12.64
2022-11-02T01:29:58.371Z,12.61
2022-11-02T01:32:28.925Z,12.57
2022-11-02T01:34:56.737Z,12.55
2022-11-02T01:37:24.511Z,12.49
2022-11-02T01:39:52.313Z,12.52
2022-11-02T01:42:22.643Z,12.61
2022-11-02T01:44:50.395Z,12.66
2022-11-02T01:47:29.434Z,12.50
2022-11-02T01:50:05.688Z,12.19
2022-11-02T01:52:36.823Z,11.99
2022-11-02T01:55:16.558Z,11.76
2022-11-02T01:57:48.948Z,11.64
2022-11-02T02:00:19.768Z,11.53
2022-11-02T02:03:02.289Z,11.40
2022-11-02T02:05:33.606Z,11.39
2022-11-02T02:08:03.504Z,11.38
2022-11-02T02:10:32.653Z,11.38
2022-11-02T02:13:00.574Z,11.35
2022-11-02T02:15:41.447Z,11.36
2022-11-02T02:18:28.466Z,11.30
2022-11-02T02:21:37.507Z,11.18
2022-11-02T02:24:30.483Z,11.08
2022-11-02T02:27:54.978Z,10.95
2022-11-02T02:30:23.502Z,10.85
2022-11-02T02:33:10.328Z,10.85
2022-11-02T02:36:06.827Z,10.84
2022-11-02T02:38:42.724Z,10.77
2022-11-02T02:41:16.902Z,10.67
2022-11-02T02:43:49.800Z,10.60
2022-11-02T02:46:25.800Z,10.52
2022-11-02T02:48:56.965Z,10.46
2022-11-02T02:51:33.496Z,10.40
2022-11-02T02:54:11.733Z,10.42
2022-11-02T02:56:50.549Z,10.35
2022-11-02T02:59:25.944Z,10.32
2022-11-02T03:01:56.507Z,10.30
2022-11-02T03:04:25.749Z,10.29
2022-11-02T03:06:58.563Z,10.26
2022-11-02T03:09:47.459Z,10.35
2022-11-02T03:12:39.372Z,10.32
2022-11-02T03:15:07.437Z,10.30
2022-11-02T03:18:02.594Z,10.36
2022-11-02T03:20:48.211Z,10.46
2022-11-02T03:23:28.368Z,10.49
2022-11-02T03:26:12.745Z,10.50
2022-11-02T03:28:59.474Z,10.49
2022-11-02T03:31:48.472Z,10.46
2022-11-02T03:34:27.307Z,10.47
2022-11-02T03:37:22.435Z,10.50
2022-11-02T03:39:58.289Z,10.50
2022-11-02T03:42:30.615Z,10.53
2022-11-02T03:45:14.161Z,10.49
2022-11-02T03:47:46.366Z,10.50
2022-11-02T03:50:23.013Z,10.52
2022-11-02T03:53:10.900Z,10.55
2022-11-02T03:55:52.831Z,10.52
2022-11-02T03:58:20.958Z,10.55
2022-11-02T04:00:58.297Z,10.55
2022-11-02T04:03:26.847Z,10.60
2022-11-02T04:05:55.681Z,10.63
2022-11-02T04:08:39.123Z,10.63
2022-11-02T04:11:28.778Z,10.68
2022-11-02T04:14:20.582Z,10.77
2022-11-02T04:16:48.675Z,10.75
2022-11-02T04:19:29.929Z,10.77
2022-11-02T04:22:19.953Z,10.83
2022-11-02T04:25:10.846Z,10.87
2022-11-02T04:27:39.722Z,10.95
2022-11-02T04:30:09.346Z,11.01
2022-11-02T04:33:00.907Z,11.02
2022-11-02T04:35:33.099Z,11.11
2022-11-02T04:38:20.522Z,11.11
2022-11-02T04:40:49.332Z,11.10
2022-11-02T04:43:17.341Z,11.15
2022-11-02T04:45:46.023Z,11.19
2022-11-02T04:48:13.941Z,11.23
2022-11-02T04:50:41.713Z,11.25
2022-11-02T04:53:10.083Z,11.30
2022-11-02T04:55:39.589Z,11.35
2022-11-02T04:58:08.299Z,11.49
2022-11-02T05:00:36.643Z,11.56
2022-11-02T05:03:09.741Z,11.62
2022-11-02T05:05:41.078Z,11.64
2022-11-02T05:08:09.166Z,11.63
2022-11-02T05:10:37.393Z,11.63
2022-11-02T05:13:06.233Z,11.64
2022-11-02T05:15:40.338Z,11.63
2022-11-02T05:18:09.205Z,11.64
2022-11-02T05:20:39.610Z,11.70
2022-11-02T05:23:07.614Z,11.71
2022-11-02T05:25:35.745Z,11.73
2022-11-02T05:28:03.567Z,11.76
2022-11-02T05:30:31.389Z,11.77
2022-11-02T05:32:59.580Z,11.80
2022-11-02T05:35:28.417Z,11.91
2022-11-02T05:37:56.305Z,11.87
2022-11-02T05:40:24.426Z,11.88
2022-11-02T05:42:52.222Z,11.83
2022-11-02T05:45:23.567Z,11.78
2022-11-02T05:47:52.509Z,11.70
2022-11-02T05:50:20.520Z,11.66
2022-11-02T05:52:48.537Z,11.59
2022-11-02T05:55:16.315Z,11.52
2022-11-02T05:57:54.085Z,11.49
2022-11-02T06:00:31.384Z,11.47
2022-11-02T06:02:59.437Z,11.43
2022-11-02T06:05:27.514Z,11.44
2022-11-02T06:07:59.608Z,11.42
2022-11-02T06:10:31.266Z,11.35
2022-11-02T06:13:01.337Z,11.33
2022-11-02T06:15:32.486Z,11.32
2022-11-02T06:18:00.799Z,11.35
2022-11-02T06:20:28.904Z,11.28
2022-11-02T06:22:56.805Z,11.29
2022-11-02T06:25:24.849Z,11.25
2022-11-02T06:27:56.045Z,11.28
2022-11-02T06:30:27.079Z,11.30
2022-11-02T06:32:55.225Z,11.40
2022-11-02T06:35:23.971Z,11.38
2022-11-02T06:37:52.431Z,11.47
2022-11-02T06:40:22.731Z,11.49
2022-11-02T06:45:47.363Z,11.44
2022-11-02T06:48:15.262Z,11.43
2022-11-02T06:50:43.045Z,11.38
2022-11-02T06:53:11.149Z,11.32
2022-11-02T06:55:38.999Z,11.30
2022-11-02T06:58:07.010Z,11.32
2022-11-02T07:00:34.980Z,11.29
2022-11-02T07:03:06.124Z,11.30
2022-11-02T07:05:35.562Z,11.36
2022-11-02T07:08:03.766Z,11.38
2022-11-02T07:10:32.179Z,11.46
2022-11-02T07:12:59.979Z,11.47
2022-11-02T07:15:28.057Z,11.56
2022-11-02T07:17:55.853Z,11.63
2022-11-02T07:20:23.722Z,11.66
2022-11-02T07:22:59.317Z,11.63
2022-11-02T07:25:30.966Z,11.73
2022-11-02T07:28:02.531Z,12.10
2022-11-02T07:30:32.617Z,12.39
2022-11-02T07:33:00.798Z,12.64
2022-11-02T07:35:28.770Z,12.72
2022-11-02T07:37:59.255Z,12.50
2022-11-02T07:40:28.219Z,12.15
2022-11-02T07:42:56.764Z,12.17
2022-11-02T07:45:34.527Z,12.32
2022-11-02T07:48:02.543Z,12.24
2022-11-02T07:50:30.288Z,12.19
2022-11-02T07:52:58.776Z,12.11
2022-11-02T07:55:28.947Z,12.01
2022-11-02T07:58:09.383Z,11.95
2022-11-02T08:00:38.904Z,11.95
2022-11-02T08:03:09.467Z,11.90
2022-11-02T08:05:39.821Z,11.84
2022-11-02T08:08:19.064Z,11.81
2022-11-02T08:10:48.696Z,11.81
2022-11-02T08:13:22.763Z,11.85
2022-11-02T08:15:52.286Z,11.93
2022-11-02T08:18:22.640Z,11.98
2022-11-02T08:20:50.692Z,12.04
2022-11-02T08:23:20.793Z,12.04
2022-11-02T08:25:50.374Z,12.14
2022-11-02T08:28:24.519Z,12.15
2022-11-02T08:30:52.751Z,12.22
2022-11-02T08:33:21.380Z,12.21
2022-11-02T08:35:49.373Z,12.29
2022-11-02T08:38:18.243Z,12.30
2022-11-02T08:40:46.057Z,12.30
2022-11-02T08:43:15.181Z,12.33
2022-11-02T08:48:33.548Z,12.36
2022-11-02T08:51:01.485Z,12.40
2022-11-02T08:53:29.221Z,12.46
2022-11-02T08:55:59.924Z,12.53
2022-11-02T08:58:27.848Z,12.56
2022-11-02T09:00:55.764Z,12.59
2022-11-02T09:03:26.874Z,12.72
2022-11-02T09:06:02.880Z,12.77
2022-11-02T09:08:31.113Z,12.76
2022-11-02T09:11:01.611Z,12.77
2022-11-02T09:13:30.180Z,12.74
2022-11-02T09:15:59.536Z,12.81
2022-11-02T09:18:27.728Z,12.90
2022-11-02T09:20:55.737Z,12.97
2022-11-02T09:23:23.914Z,13.01
2022-11-02T09:25:51.994Z,13.07
2022-11-02T09:28:19.849Z,13.02
2022-11-02T09:30:47.749Z,13.05
2022-11-02T09:33:16.147Z,13.11
2022-11-02T09:35:48.745Z,13.12
2022-11-02T09:38:20.170Z,12.94
2022-11-02T09:40:59.958Z,12.94
2022-11-02T09:44:09.091Z,13.01
2022-11-02T09:46:44.991Z,13.10
2022-11-02T09:49:17.624Z,13.15
2022-11-02T09:51:48.593Z,13.12
2022-11-02T09:54:30.068Z,13.18
2022-11-02T09:57:05.207Z,13.19
2022-11-02T09:59:33.863Z,13.28
2022-11-02T10:02:23.815Z,13.26
2022-11-02T10:05:13.776Z,13.29
2022-11-02T10:08:22.730Z,13.32
2022-11-02T10:11:01.930Z,13.30
2022-11-02T10:13:42.466Z,13.30
2022-11-02T10:16:31.552Z,13.49
2022-11-02T10:18:59.495Z,13.50
2022-11-02T10:21:34.175Z,13.57
2022-11-02T10:24:34.066Z,13.67
2022-11-02T10:27:10.224Z,13.70
2022-11-02T10:29:51.680Z,13.73
2022-11-02T10:32:19.702Z,13.81
2022-11-02T10:34:58.549Z,13.73
2022-11-02T10:37:55.948Z,13.83
2022-11-02T10:40:43.214Z,13.83
2022-11-02T10:43:13.851Z,13.87
2022-11-02T10:45:48.375Z,13.91
2022-11-02T10:48:31.950Z,13.93
2022-11-02T10:51:17.659Z,13.91
2022-11-02T10:53:48.377Z,13.85
2022-11-02T10:56:29.864Z,13.95
2022-11-02T10:59:09.148Z,13.95
2022-11-02T11:01:37.301Z,14.00
2022-11-02T11:04:19.527Z,14.04
2022-11-02T11:06:47.474Z,13.98
2022-11-02T11:09:22.886Z,13.98
2022-11-02T11:11:58.378Z,14.05
2022-11-02T11:20:34.563Z,14.29
2022-11-02T11:23:28.718Z,14.30
2022-11-02T11:26:05.008Z,14.15
2022-11-02T11:28:55.756Z,14.18
2022-11-02T11:31:24.318Z,14.24
2022-11-02T11:33:53.897Z,14.26
2022-11-02T11:39:01.008Z,14.24
2022-11-02T11:41:31.107Z,14.24
2022-11-02T11:44:00.205Z,14.22
2022-11-02T11:46:47.065Z,14.25
2022-11-02T11:50:07.759Z,14.38
2022-11-02T11:52:36.039Z,14.56
2022-11-02T11:55:22.733Z,14.60
2022-11-02T11:58:25.005Z,14.69
2022-11-02T12:01:09.330Z,14.85
2022-11-02T12:03:56.579Z,14.81
2022-11-02T12:06:38.380Z,14.95
2022-11-02T12:09:24.177Z,15.08
2022-11-02T12:11:55.069Z,15.15
2022-11-02T12:14:34.838Z,15.12
2022-11-02T12:17:16.536Z,15.01
2022-11-02T12:19:50.315Z,14.91
2022-11-02T12:22:56.914Z,14.77
2022-11-02T12:25:33.802Z,14.72
2022-11-02T12:28:15.597Z,14.73
2022-11-02T12:31:18.956Z,14.70
2022-11-02T12:33:46.762Z,14.69
2022-11-02T12:37:31.316Z,14.91
2022-11-02T12:40:04.148Z,15.00
2022-11-02T12:42:44.173Z,15.07
2022-11-02T12:45:25.371Z,15.04
2022-11-02T12:47:59.175Z,15.05
2022-11-02T12:50:59.966Z,14.98
2022-11-02T12:53:41.051Z,14.93
2022-11-02T12:56:16.772Z,14.93
2022-11-02T12:58:45.498Z,14.88
2022-11-02T13:01:37.783Z,14.76
2022-11-02T13:04:28.107Z,14.59
2022-11-02T13:07:03.986Z,14.53
2022-11-02T13:09:38.442Z,14.53
2022-11-02T13:12:14.890Z,14.47
2022-11-02T13:14:52.040Z,14.42
2022-11-02T13:17:40.388Z,14.39
2022-11-02T13:20:16.723Z,14.28
2022-11-02T13:22:48.310Z,14.22
2022-11-02T13:25:31.476Z,14.28
2022-11-02T13:28:22.235Z,14.35
2022-11-02T13:30:50.630Z,14.42
2022-11-02T13:33:26.984Z,14.39
2022-11-02T13:35:55.044Z,14.32
2022-11-02T13:38:36.835Z,14.35
2022-11-02T13:41:24.899Z,14.33
2022-11-02T13:43:55.482Z,14.38
2022-11-02T13:46:23.289Z,14.40
2022-11-02T13:49:12.132Z,14.42
2022-11-02T13:51:49.819Z,14.50
2022-11-02T13:54:28.800Z,14.63
2022-11-02T13:56:58.932Z,14.73
2022-11-02T13:59:28.884Z,14.65
2022-11-02T14:01:59.993Z,14.62
2022-11-02T14:04:36.906Z,14.59
2022-11-02T14:07:09.235Z,14.56
2022-11-02T14:09:44.773Z,14.49
2022-11-02T14:12:21.505Z,14.47
2022-11-02T14:15:18.553Z,14.38
2022-11-02T14:18:09.855Z,14.33
2022-11-02T14:20:43.946Z,14.30
2022-11-02T14:23:14.500Z,14.26
2022-11-02T14:25:49.566Z,14.26
2022-11-02T14:28:25.604Z,14.24
2022-11-02T14:30:59.440Z,14.19
2022-11-02T14:33:55.068Z,14.17
2022-11-02T14:36:37.622Z,14.08
2022-11-02T14:39:34.972Z,14.10
2022-11-02T14:42:38.885Z,14.05
2022-11-02T14:45:37.898Z,13.98
2022-11-02T14:48:07.364Z,13.94
2022-11-02T14:50:35.830Z,13.94
2022-11-02T14:53:26.340Z,13.95
2022-11-02T14:55:56.743Z,13.98
2022-11-02T14:58:39.104Z,13.98
2022-11-02T15:01:12.779Z,13.91
2022-11-02T15:03:42.411Z,13.88
2022-11-02T15:06:25.590Z,13.81
2022-11-02T15:09:04.590Z,13.77
2022-11-02T15:11:56.976Z,13.69
2022-11-02T15:14:58.896Z,13.62
2022-11-02T15:17:26.896Z,13.56
2022-11-02T15:19:58.281Z,13.47
2022-11-02T15:22:50.764Z,13.38
2022-11-02T15:25:39.973Z,13.30
2022-11-02T15:28:12.672Z,13.21
2022-11-02T15:30:53.093Z,13.08
2022-11-02T15:33:27.862Z,12.97
2022-11-02T15:35:58.744Z,12.85
2022-11-02T15:38:36.720Z,12.81
2022-11-02T15:41:27.534Z,12.80
2022-11-02T15:44:10.469Z,12.83
2022-11-02T15:46:49.436Z,12.80
2022-11-02T15:49:29.577Z,12.79
2022-11-02T15:52:23.829Z,12.74
2022-11-02T15:55:07.842Z,12.73
2022-11-02T15:58:08.651Z,12.60
2022-11-02T16:00:36.804Z,12.59
2022-11-02T16:03:10.832Z,12.57
2022-11-02T16:05:39.079Z,12.49
2022-11-02T16:08:30.879Z,12.36
2022-11-02T16:11:25.397Z,12.25
2022-11-02T16:14:08.651Z,12.19
2022-11-02T16:16:47.367Z,12.18
2022-11-02T16:19:22.159Z,12.15
2022-11-02T16:21:50.041Z,12.17
2022-11-02T16:24:19.013Z,12.15
2022-11-02T16:26:48.963Z,12.14
2022-11-02T16:29:32.609Z,12.11
2022-11-02T16:32:02.378Z,12.01
2022-11-02T16:34:31.975Z,11.97
2022-11-02T16:37:07.545Z,11.91
2022-11-02T16:39:41.831Z,11.83
2022-11-02T16:42:38.913Z,11.77
2022-11-02T16:45:22.483Z,11.78
2022-11-02T16:47:50.267Z,11.78
2022-11-02T16:50:26.374Z,11.77
2022-11-02T16:52:59.547Z,11.76
2022-11-02T16:55:43.780Z,11.76
2022-11-02T16:58:22.802Z,11.73
2022-11-02T17:01:05.560Z,11.71
2022-11-02T17:03:34.684Z,11.67
2022-11-02T17:06:05.800Z,11.64
2022-11-02T17:08:39.129Z,11.70
2022-11-02T17:11:13.543Z,11.69
2022-11-02T17:13:56.803Z,11.64
2022-11-02T17:16:24.605Z,11.59
2022-11-02T17:18:52.505Z,11.56
2022-11-02T17:21:27.183Z,11.55
2022-11-02T17:23:56.942Z,11.53
2022-11-02T17:26:34.793Z,11.49
2022-11-02T17:29:23.905Z,11.59
2022-11-02T17:31:57.175Z,11.56
2022-11-02T17:34:25.113Z,11.56
2022-11-02T17:36:53.498Z,11.66
2022-11-02T17:39:21.848Z,11.67
2022-11-02T17:42:16.224Z,11.66
2022-11-02T17:44:45.678Z,11.64
2022-11-02T17:47:15.780Z,11.63
2022-11-02T17:49:43.536Z,11.64
2022-11-02T17:52:14.503Z,11.67
2022-11-02T17:54:42.342Z,11.70
2022-11-02T17:57:14.088Z,11.69
2022-11-02T17:59:42.091Z,11.70
2022-11-02T18:02:14.711Z,11.70
2022-11-02T18:07:12.264Z,11.70
2022-11-02T18:09:40.189Z,11.69
2022-11-02T18:12:13.591Z,11.62
2022-11-02T18:14:41.496Z,11.63
2022-11-02T18:17:09.621Z,11.63
2022-11-02T18:19:37.529Z,11.60
2022-11-02T18:22:05.412Z,11.60
2022-11-02T18:24:33.931Z,11.56
2022-11-02T18:27:02.046Z,11.53
2022-11-02T18:29:30.449Z,11.52
2022-11-02T18:31:58.445Z,11.53
2022-11-02T18:34:35.241Z,11.52
2022-11-02T18:37:03.411Z,11.53
2022-11-02T18:39:31.209Z,11.47
2022-11-02T18:42:00.628Z,11.52
2022-11-02T18:44:28.537Z,11.60
2022-11-02T18:46:58.261Z,11.57
2022-11-02T18:49:26.670Z,11.55
2022-11-02T18:51:57.583Z,11.55
2022-11-02T18:54:25.561Z,11.60
2022-11-02T18:56:53.547Z,11.64
2022-11-02T18:59:21.394Z,11.62
2022-11-02T19:01:49.671Z,11.62
2022-11-02T19:04:18.050Z,11.62
2022-11-02T19:07:10.024Z,11.59
2022-11-02T19:09:40.795Z,11.57
2022-11-02T19:12:16.317Z,11.59
2022-11-02T19:14:47.693Z,11.60
2022-11-02T19:17:15.875Z,11.59
2022-11-02T19:19:46.438Z,11.67
2022-11-02T19:22:19.148Z,11.70
2022-11-02T19:24:50.764Z,11.76
2022-11-02T19:27:24.450Z,11.81
2022-11-02T19:29:52.874Z,11.85
2022-11-02T19:32:21.332Z,11.84
2022-11-02T19:34:49.282Z,11.94
2022-11-02T19:37:17.408Z,11.91
2022-11-02T19:39:45.324Z,11.93
2022-11-02T19:42:13.565Z,11.98
2022-11-02T19:44:42.961Z,11.99
2022-11-02T19:47:11.307Z,11.99
2022-11-02T19:49:42.539Z,12.02
2022-11-02T19:52:13.482Z,12.02
2022-11-02T19:54:41.764Z,11.98
2022-11-02T19:57:09.737Z,11.95
2022-11-02T19:59:37.773Z,11.93
2022-11-02T20:02:05.762Z,11.93
2022-11-02T20:04:39.468Z,11.91
2022-11-02T20:07:10.111Z,11.88
2022-11-02T20:09:38.505Z,11.93
2022-11-02T20:12:07.635Z,11.90
2022-11-02T20:14:36.733Z,11.91
2022-11-02T20:17:29.642Z,11.91
2022-11-02T20:19:53.074Z,11.88
2022-11-02T20:22:21.165Z,11.90
2022-11-02T20:24:49.253Z,11.90
2022-11-02T20:27:17.340Z,11.84
2022-11-02T20:29:46.336Z,11.81
2022-11-02T20:32:15.515Z,11.77
2022-11-02T20:34:43.309Z,11.77
2022-11-02T20:37:11.142Z,11.80
2022-11-02T20:39:39.087Z,11.76
2022-11-02T20:42:06.923Z,11.76
2022-11-02T20:44:34.937Z,11.74
2022-11-02T20:47:02.830Z,11.71
2022-11-02T20:49:49.283Z,11.69
2022-11-02T20:52:21.664Z,11.70
2022-11-02T20:54:49.500Z,11.69
2022-11-02T20:57:17.613Z,11.76
2022-11-02T20:59:45.531Z,11.76
2022-11-02T21:02:13.675Z,11.74
2022-11-02T21:04:41.744Z,11.76
2022-11-02T21:07:09.660Z,11.71
2022-11-02T21:09:37.579Z,11.76
2022-11-02T21:12:24.393Z,11.78
2022-11-02T21:14:52.365Z,11.70
2022-11-02T21:17:20.236Z,11.66
2022-11-02T21:19:48.438Z,11.71
2022-11-02T21:22:16.327Z,11.77
2022-11-02T21:24:44.167Z,11.76
2022-11-02T21:27:11.965Z,11.74
2022-11-02T21:29:39.785Z,11.74
2022-11-02T21:32:08.509Z,11.71
2022-11-02T21:34:36.655Z,11.77
2022-11-02T21:37:06.814Z,11.83
2022-11-02T21:39:38.809Z,11.84
2022-11-02T21:42:11.070Z,11.81
2022-11-02T21:44:39.117Z,11.83
2022-11-02T21:47:08.646Z,11.85
2022-11-02T21:49:36.716Z,11.91
2022-11-02T21:52:04.973Z,11.90
2022-11-02T21:54:32.942Z,11.84
2022-11-02T21:57:00.835Z,11.87
2022-11-02T21:59:28.697Z,11.81
2022-11-02T22:01:56.902Z,11.81
2022-11-02T22:04:28.999Z,11.83
2022-11-02T22:06:58.437Z,11.84
2022-11-02T22:09:27.398Z,11.87
2022-11-02T22:12:15.412Z,11.84
2022-11-02T22:14:44.930Z,11.88
2022-11-02T22:17:43.271Z,11.83
2022-11-02T22:20:04.135Z,11.85
2022-11-02T22:22:32.269Z,11.87
2022-11-02T22:25:00.706Z,11.90
2022-11-02T22:27:29.237Z,11.94
2022-11-02T22:29:57.514Z,11.94
2022-11-02T22:32:25.878Z,11.91
2022-11-02T22:34:54.202Z,11.88
2022-11-02T22:37:40.824Z,11.87
2022-11-02T22:40:09.574Z,11.84
2022-11-02T22:42:39.883Z,11.77
2022-11-02T22:45:10.437Z,11.78
2022-11-02T22:47:38.453Z,11.78
2022-11-02T22:50:06.834Z,11.78
2022-11-02T22:52:34.599Z,11.78
2022-11-02T22:55:02.417Z,11.77
2022-11-02T22:57:30.292Z,11.77
2022-11-02T22:59:58.097Z,11.74
2022-11-02T23:02:25.946Z,11.73
2022-11-02T23:04:53.867Z,11.76
2022-11-02T23:07:21.611Z,11.76
2022-11-02T23:09:49.460Z,11.74
2022-11-02T23:12:17.236Z,11.74
2022-11-02T23:14:45.032Z,11.73
2022-11-02T23:17:12.812Z,11.70
2022-11-02T23:19:40.672Z,11.71
2022-11-02T23:22:28.941Z,11.70
2022-11-02T23:25:17.916Z,11.64
2022-11-02T23:28:12.794Z,11.64
2022-11-02T23:31:00.123Z,11.63
2022-11-02T23:33:36.278Z,11.60
2022-11-02T23:36:15.416Z,11.60
2022-11-02T23:39:02.955Z,11.60
2022-11-02T23:41:32.782Z,11.56
2022-11-02T23:44:16.307Z,11.53
2022-11-02T23:46:45.834Z,11.47
2022-11-02T23:49:15.965Z,11.44
2022-11-02T23:52:02.558Z,11.39
2022-11-02T23:54:49.047Z,11.32
2022-11-02T23:57:18.621Z,11.32
2022-11-02T23:59:46.366Z,11.29
